sensor_id;sensor_type;location;lat;lon;timestamp;temperature;humidity
9885;DHT22;4981;50.966;4.842;2023-09-12T03:02:52;18.70;1.00
9885;DHT22;4981;50.966;4.842;2023-09-12T03:05:19;18.70;1.00
9885;DHT22;4981;50.966;4.842;2023-09-12T03:07:46;18.80;1.00
9885;DHT22;4981;50.966;4.842;2023-09-12T03:10:13;19.10;1.00
9885;DHT22;4981;50.966;4.842;2023-09-12T03:12:40;18.80;1.00
9885;DHT22;4981;50.966;4.842;2023-09-12T03:15:09;19.00;1.00
9885;DHT22;4981;50.966;4.842;2023-09-12T03:17:36;18.90;1.00
9885;DHT22;4981;50.966;4.842;2023-09-12T03:20:05;19.00;1.00
9885;DHT22;4981;50.966;4.842;2023-09-12T03:22:34;19.00;1.00
9885;DHT22;4981;50.966;4.842;2023-09-12T03:25:03;18.90;1.00
9885;DHT22;4981;50.966;4.842;2023-09-12T03:27:31;19.20;1.00
9885;DHT22;4981;50.966;4.842;2023-09-12T03:29:58;19.10;1.00
9885;DHT22;4981;50.966;4.842;2023-09-12T03:32:25;19.00;1.00
9885;DHT22;4981;50.966;4.842;2023-09-12T03:34:52;19.00;1.00
9885;DHT22;4981;50.966;4.842;2023-09-12T03:37:20;18.90;1.00
9885;DHT22;4981;50.966;4.842;2023-09-12T03:39:48;19.00;1.00
9885;DHT22;4981;50.966;4.842;2023-09-12T03:42:15;19.10;1.00
9885;DHT22;4981;50.966;4.842;2023-09-12T03:44:42;19.00;1.00
9885;DHT22;4981;50.966;4.842;2023-09-12T03:47:09;19.20;1.00
9885;DHT22;4981;50.966;4.842;2023-09-12T03:49:36;19.10;1.00
9885;DHT22;4981;50.966;4.842;2023-09-12T03:52:04;19.10;1.00
9885;DHT22;4981;50.966;4.842;2023-09-12T03:54:32;19.10;1.00
9885;DHT22;4981;50.966;4.842;2023-09-12T03:56:59;19.20;1.00
9885;DHT22;4981;50.966;4.842;2023-09-12T03:59:26;19.10;1.00
9885;DHT22;4981;50.966;4.842;2023-09-12T04:01:53;19.10;1.00
9885;DHT22;4981;50.966;4.842;2023-09-12T04:04:20;19.10;1.00
9885;DHT22;4981;50.966;4.842;2023-09-12T04:06:47;19.10;1.00
9885;DHT22;4981;50.966;4.842;2023-09-12T04:09:14;19.00;1.00
9885;DHT22;4981;50.966;4.842;2023-09-12T04:11:42;19.20;1.00
9885;DHT22;4981;50.966;4.842;2023-09-12T04:14:09;19.20;1.00
9885;DHT22;4981;50.966;4.842;2023-09-12T04:16:36;19.20;1.00
9885;DHT22;4981;50.966;4.842;2023-09-12T04:19:03;19.20;1.00
9885;DHT22;4981;50.966;4.842;2023-09-12T04:21:30;19.20;1.00
9885;DHT22;4981;50.966;4.842;2023-09-12T04:23:57;18.90;1.00
9885;DHT22;4981;50.966;4.842;2023-09-12T04:26:24;19.00;1.00
9885;DHT22;4981;50.966;4.842;2023-09-12T04:28:53;19.10;1.00
9885;DHT22;4981;50.966;4.842;2023-09-12T04:31:19;19.00;1.00
9885;DHT22;4981;50.966;4.842;2023-09-12T04:33:46;19.10;1.00
9885;DHT22;4981;50.966;4.842;2023-09-12T04:36:13;19.10;1.00
9885;DHT22;4981;50.966;4.842;2023-09-12T04:38:40;19.10;1.00
9885;DHT22;4981;50.966;4.842;2023-09-12T04:41:08;19.20;1.00
9885;DHT22;4981;50.966;4.842;2023-09-12T04:43:35;19.00;1.00
9885;DHT22;4981;50.966;4.842;2023-09-12T04:46:03;19.00;1.00
9885;DHT22;4981;50.966;4.842;2023-09-12T04:48:30;19.00;1.00
9885;DHT22;4981;50.966;4.842;2023-09-12T04:50:57;19.10;1.00
9885;DHT22;4981;50.966;4.842;2023-09-12T04:53:24;19.10;1.00
9885;DHT22;4981;50.966;4.842;2023-09-12T04:55:52;19.20;1.00
9885;DHT22;4981;50.966;4.842;2023-09-12T04:58:19;19.20;1.00
9885;DHT22;4981;50.966;4.842;2023-09-12T05:00:46;19.10;1.00
9885;DHT22;4981;50.966;4.842;2023-09-12T05:03:15;19.00;1.00
9885;DHT22;4981;50.966;4.842;2023-09-12T05:05:44;19.10;1.00
9885;DHT22;4981;50.966;4.842;2023-09-12T05:08:11;19.00;1.00
9885;DHT22;4981;50.966;4.842;2023-09-12T05:10:38;18.90;1.00
9885;DHT22;4981;50.966;4.842;2023-09-12T05:13:06;19.00;1.00
9885;DHT22;4981;50.966;4.842;2023-09-12T05:15:33;19.00;1.00
9885;DHT22;4981;50.966;4.842;2023-09-12T05:18:00;18.90;1.00
9885;DHT22;4981;50.966;4.842;2023-09-12T05:20:28;18.90;1.00
9885;DHT22;4981;50.966;4.842;2023-09-12T05:22:55;18.90;1.00
9885;DHT22;4981;50.966;4.842;2023-09-12T05:25:22;19.00;1.00
9885;DHT22;4981;50.966;4.842;2023-09-12T05:27:49;19.10;1.00
9885;DHT22;4981;50.966;4.842;2023-09-12T05:30:16;19.00;1.00
9885;DHT22;4981;50.966;4.842;2023-09-12T05:32:43;19.10;1.00
9885;DHT22;4981;50.966;4.842;2023-09-12T05:35:10;19.00;1.00
9885;DHT22;4981;50.966;4.842;2023-09-12T05:37:39;19.10;1.00
9885;DHT22;4981;50.966;4.842;2023-09-12T05:40:06;18.70;1.00
9885;DHT22;4981;50.966;4.842;2023-09-12T05:42:35;19.00;1.00
9885;DHT22;4981;50.966;4.842;2023-09-12T05:45:02;19.40;1.00
9885;DHT22;4981;50.966;4.842;2023-09-12T05:47:29;18.10;1.00
9885;DHT22;4981;50.966;4.842;2023-09-12T05:49:56;19.10;1.00
9885;DHT22;4981;50.966;4.842;2023-09-12T05:52:25;19.00;1.00
9885;DHT22;4981;50.966;4.842;2023-09-12T05:54:53;19.10;1.00
9885;DHT22;4981;50.966;4.842;2023-09-12T05:57:20;19.00;1.00
9885;DHT22;4981;50.966;4.842;2023-09-12T05:59:47;19.00;1.00
9885;DHT22;4981;50.966;4.842;2023-09-12T06:02:14;19.20;1.00
9885;DHT22;4981;50.966;4.842;2023-09-12T06:04:41;19.10;1.00
9885;DHT22;4981;50.966;4.842;2023-09-12T06:07:08;19.00;1.00
9885;DHT22;4981;50.966;4.842;2023-09-12T06:09:35;19.00;1.00
9885;DHT22;4981;50.966;4.842;2023-09-12T06:12:04;19.10;1.00
9885;DHT22;4981;50.966;4.842;2023-09-12T06:14:31;19.00;1.00
9885;DHT22;4981;50.966;4.842;2023-09-12T06:16:58;19.00;1.00
9885;DHT22;4981;50.966;4.842;2023-09-12T06:19:25;19.00;1.00
9885;DHT22;4981;50.966;4.842;2023-09-12T06:21:52;19.30;1.00
9885;DHT22;4981;50.966;4.842;2023-09-12T06:24:21;19.00;1.00
9885;DHT22;4981;50.966;4.842;2023-09-12T06:26:49;19.00;1.00
9885;DHT22;4981;50.966;4.842;2023-09-12T06:29:17;19.00;1.00
9885;DHT22;4981;50.966;4.842;2023-09-12T06:31:44;19.00;1.00
9885;DHT22;4981;50.966;4.842;2023-09-12T06:34:11;19.00;1.00
9885;DHT22;4981;50.966;4.842;2023-09-12T06:36:38;19.00;1.00
9885;DHT22;4981;50.966;4.842;2023-09-12T06:39:07;19.00;1.00
9885;DHT22;4981;50.966;4.842;2023-09-12T06:41:34;20.10;1.00
9885;DHT22;4981;50.966;4.842;2023-09-12T06:44:01;19.20;1.00
9885;DHT22;4981;50.966;4.842;2023-09-12T06:46:31;19.20;1.00
9885;DHT22;4981;50.966;4.842;2023-09-12T06:49:01;19.30;1.00
9885;DHT22;4981;50.966;4.842;2023-09-12T06:51:28;19.30;1.00
9885;DHT22;4981;50.966;4.842;2023-09-12T06:53:55;19.40;1.00
9885;DHT22;4981;50.966;4.842;2023-09-12T06:56:22;19.30;1.00
9885;DHT22;4981;50.966;4.842;2023-09-12T06:58:49;19.50;1.00
9885;DHT22;4981;50.966;4.842;2023-09-12T07:01:18;19.50;1.00
9885;DHT22;4981;50.966;4.842;2023-09-12T07:03:47;19.50;1.00
9885;DHT22;4981;50.966;4.842;2023-09-12T07:06:14;19.60;1.00
9885;DHT22;4981;50.966;4.842;2023-09-12T07:08:41;19.60;1.00
9885;DHT22;4981;50.966;4.842;2023-09-12T07:11:08;19.70;1.00
9885;DHT22;4981;50.966;4.842;2023-09-12T07:13:35;19.80;1.00
9885;DHT22;4981;50.966;4.842;2023-09-12T07:16:02;19.90;1.00
9885;DHT22;4981;50.966;4.842;2023-09-12T07:18:30;19.90;1.00
9885;DHT22;4981;50.966;4.842;2023-09-12T07:21:00;19.90;1.00
9885;DHT22;4981;50.966;4.842;2023-09-12T07:23:27;20.00;1.00
9885;DHT22;4981;50.966;4.842;2023-09-12T07:25:55;20.10;1.00
9885;DHT22;4981;50.966;4.842;2023-09-12T07:28:23;20.10;1.00
9885;DHT22;4981;50.966;4.842;2023-09-12T07:30:50;20.10;1.00
9885;DHT22;4981;50.966;4.842;2023-09-12T07:33:17;20.20;1.00
9885;DHT22;4981;50.966;4.842;2023-09-12T07:35:44;20.20;1.00
9885;DHT22;4981;50.966;4.842;2023-09-12T07:38:13;20.30;1.00
9885;DHT22;4981;50.966;4.842;2023-09-12T07:40:41;20.40;1.00
9885;DHT22;4981;50.966;4.842;2023-09-12T07:43:08;20.50;1.00
9885;DHT22;4981;50.966;4.842;2023-09-12T07:45:36;20.60;1.00
9885;DHT22;4981;50.966;4.842;2023-09-12T07:48:05;20.70;1.00
9885;DHT22;4981;50.966;4.842;2023-09-12T07:50:32;20.70;1.00
9885;DHT22;4981;50.966;4.842;2023-09-12T07:52:59;20.90;1.00
9885;DHT22;4981;50.966;4.842;2023-09-12T07:55:28;20.80;1.00
9885;DHT22;4981;50.966;4.842;2023-09-12T07:57:56;20.80;1.00
9885;DHT22;4981;50.966;4.842;2023-09-12T08:00:24;20.70;1.00
9885;DHT22;4981;50.966;4.842;2023-09-12T08:02:51;20.80;1.00
9885;DHT22;4981;50.966;4.842;2023-09-12T08:05:18;20.80;1.00
9885;DHT22;4981;50.966;4.842;2023-09-12T08:07:45;20.90;1.00
9885;DHT22;4981;50.966;4.842;2023-09-12T08:10:12;21.10;1.00
9885;DHT22;4981;50.966;4.842;2023-09-12T08:12:40;21.30;1.00
9885;DHT22;4981;50.966;4.842;2023-09-12T08:15:08;21.20;1.00
9885;DHT22;4981;50.966;4.842;2023-09-12T08:17:35;21.40;1.00
9885;DHT22;4981;50.966;4.842;2023-09-12T08:20:02;21.30;1.00
9885;DHT22;4981;50.966;4.842;2023-09-12T08:22:29;21.50;1.00
9885;DHT22;4981;50.966;4.842;2023-09-12T08:24:56;21.50;1.00
9885;DHT22;4981;50.966;4.842;2023-09-12T08:27:23;21.50;1.00
9885;DHT22;4981;50.966;4.842;2023-09-12T08:29:51;21.50;1.00
9885;DHT22;4981;50.966;4.842;2023-09-12T08:32:18;21.60;1.00
9885;DHT22;4981;50.966;4.842;2023-09-12T08:34:45;21.40;1.00
9885;DHT22;4981;50.966;4.842;2023-09-12T08:37:12;21.50;1.00
9885;DHT22;4981;50.966;4.842;2023-09-12T08:39:43;21.50;1.00
9885;DHT22;4981;50.966;4.842;2023-09-12T08:42:12;21.50;1.00
9885;DHT22;4981;50.966;4.842;2023-09-12T08:44:40;21.40;1.00
9885;DHT22;4981;50.966;4.842;2023-09-12T08:47:09;21.40;1.00
9885;DHT22;4981;50.966;4.842;2023-09-12T08:49:37;21.40;1.00
9885;DHT22;4981;50.966;4.842;2023-09-12T08:52:05;21.40;1.00
9885;DHT22;4981;50.966;4.842;2023-09-12T08:54:32;21.50;1.00
9885;DHT22;4981;50.966;4.842;2023-09-12T08:57:01;21.30;1.00
9885;DHT22;4981;50.966;4.842;2023-09-12T08:59:30;21.40;1.00
9885;DHT22;4981;50.966;4.842;2023-09-12T09:01:58;21.50;1.00
9885;DHT22;4981;50.966;4.842;2023-09-12T09:04:28;21.60;1.00
9885;DHT22;4981;50.966;4.842;2023-09-12T09:06:58;21.70;1.00
9885;DHT22;4981;50.966;4.842;2023-09-12T09:09:26;21.80;1.00
9885;DHT22;4981;50.966;4.842;2023-09-12T09:11:54;21.90;1.00
9885;DHT22;4981;50.966;4.842;2023-09-12T09:14:21;21.90;1.00
9885;DHT22;4981;50.966;4.842;2023-09-12T09:16:49;21.90;1.00
9885;DHT22;4981;50.966;4.842;2023-09-12T09:19:16;21.80;1.00
9885;DHT22;4981;50.966;4.842;2023-09-12T09:21:45;21.90;1.00
9885;DHT22;4981;50.966;4.842;2023-09-12T09:24:14;21.90;1.00
9885;DHT22;4981;50.966;4.842;2023-09-12T09:26:43;22.00;1.00
9885;DHT22;4981;50.966;4.842;2023-09-12T09:29:13;22.20;1.00
9885;DHT22;4981;50.966;4.842;2023-09-12T09:31:41;22.10;1.00
9885;DHT22;4981;50.966;4.842;2023-09-12T09:34:12;22.00;1.00
9885;DHT22;4981;50.966;4.842;2023-09-12T09:36:47;22.10;1.00
9885;DHT22;4981;50.966;4.842;2023-09-12T09:39:14;22.20;1.00
9885;DHT22;4981;50.966;4.842;2023-09-12T09:41:42;22.40;1.00
9885;DHT22;4981;50.966;4.842;2023-09-12T09:44:09;22.30;1.00
9885;DHT22;4981;50.966;4.842;2023-09-12T09:46:37;22.30;1.00
9885;DHT22;4981;50.966;4.842;2023-09-12T09:49:04;22.40;1.00
9885;DHT22;4981;50.966;4.842;2023-09-12T09:51:33;22.40;1.00
9885;DHT22;4981;50.966;4.842;2023-09-12T09:54:09;22.40;1.00
9885;DHT22;4981;50.966;4.842;2023-09-12T09:56:45;22.40;1.00
9885;DHT22;4981;50.966;4.842;2023-09-12T09:59:14;22.50;1.00
9885;DHT22;4981;50.966;4.842;2023-09-12T10:01:42;22.50;1.00
9885;DHT22;4981;50.966;4.842;2023-09-12T10:04:10;22.50;1.00
9885;DHT22;4981;50.966;4.842;2023-09-12T10:06:37;22.70;1.00
9885;DHT22;4981;50.966;4.842;2023-09-12T10:09:10;22.80;1.00
9885;DHT22;4981;50.966;4.842;2023-09-12T10:11:40;22.70;1.00
9885;DHT22;4981;50.966;4.842;2023-09-12T10:14:07;22.70;1.00
9885;DHT22;4981;50.966;4.842;2023-09-12T10:16:38;22.70;1.00
9885;DHT22;4981;50.966;4.842;2023-09-12T10:19:10;22.60;1.00
9885;DHT22;4981;50.966;4.842;2023-09-12T10:21:44;22.70;1.00
9885;DHT22;4981;50.966;4.842;2023-09-12T10:24:12;22.70;1.00
9885;DHT22;4981;50.966;4.842;2023-09-12T10:26:43;22.70;1.00
9885;DHT22;4981;50.966;4.842;2023-09-12T10:29:13;22.80;1.00
9885;DHT22;4981;50.966;4.842;2023-09-12T10:31:41;22.90;1.00
9885;DHT22;4981;50.966;4.842;2023-09-12T10:34:08;22.90;1.00
9885;DHT22;4981;50.966;4.842;2023-09-12T10:36:40;23.10;1.00
9885;DHT22;4981;50.966;4.842;2023-09-12T10:39:08;23.30;1.00
9885;DHT22;4981;50.966;4.842;2023-09-12T10:41:37;23.50;1.00
9885;DHT22;4981;50.966;4.842;2023-09-12T10:44:09;23.40;1.00
9885;DHT22;4981;50.966;4.842;2023-09-12T10:46:38;23.50;1.00
9885;DHT22;4981;50.966;4.842;2023-09-12T10:49:07;23.40;1.00
9885;DHT22;4981;50.966;4.842;2023-09-12T10:51:37;23.50;1.00
9885;DHT22;4981;50.966;4.842;2023-09-12T10:54:05;23.60;1.00
9885;DHT22;4981;50.966;4.842;2023-09-12T10:56:33;23.80;1.00
9885;DHT22;4981;50.966;4.842;2023-09-12T10:59:14;23.60;1.00
9885;DHT22;4981;50.966;4.842;2023-09-12T11:01:42;23.80;1.00
9885;DHT22;4981;50.966;4.842;2023-09-12T11:04:30;24.00;1.00
9885;DHT22;4981;50.966;4.842;2023-09-12T11:06:59;23.70;1.00
9885;DHT22;4981;50.966;4.842;2023-09-12T11:09:26;23.60;1.00
9885;DHT22;4981;50.966;4.842;2023-09-12T11:11:58;23.60;1.00
9885;DHT22;4981;50.966;4.842;2023-09-12T11:14:29;23.50;1.00
9885;DHT22;4981;50.966;4.842;2023-09-12T11:17:27;23.50;1.00
9885;DHT22;4981;50.966;4.842;2023-09-12T11:20:02;23.70;1.00
9885;DHT22;4981;50.966;4.842;2023-09-12T11:22:36;23.90;1.00
9885;DHT22;4981;50.966;4.842;2023-09-12T11:25:05;24.00;1.00
9885;DHT22;4981;50.966;4.842;2023-09-12T11:28:05;23.90;1.00
9885;DHT22;4981;50.966;4.842;2023-09-12T11:30:34;23.70;1.00
9885;DHT22;4981;50.966;4.842;2023-09-12T11:33:04;23.80;1.00
9885;DHT22;4981;50.966;4.842;2023-09-12T11:35:36;23.80;1.00
9885;DHT22;4981;50.966;4.842;2023-09-12T11:38:03;24.00;1.00
9885;DHT22;4981;50.966;4.842;2023-09-12T11:40:42;24.20;1.00
9885;DHT22;4981;50.966;4.842;2023-09-12T11:43:19;24.30;1.00
9885;DHT22;4981;50.966;4.842;2023-09-12T11:45:48;24.30;1.00
9885;DHT22;4981;50.966;4.842;2023-09-12T11:48:17;24.50;1.00
9885;DHT22;4981;50.966;4.842;2023-09-12T11:50:49;24.60;1.00
9885;DHT22;4981;50.966;4.842;2023-09-12T11:53:20;24.60;1.00
9885;DHT22;4981;50.966;4.842;2023-09-12T11:55:48;24.70;1.00
9885;DHT22;4981;50.966;4.842;2023-09-12T11:58:17;24.70;1.00
9885;DHT22;4981;50.966;4.842;2023-09-12T12:00:45;24.50;1.00
9885;DHT22;4981;50.966;4.842;2023-09-12T12:03:14;24.70;1.00
9885;DHT22;4981;50.966;4.842;2023-09-12T12:05:41;25.10;1.00
9885;DHT22;4981;50.966;4.842;2023-09-12T12:08:08;25.10;1.00
9885;DHT22;4981;50.966;4.842;2023-09-12T12:10:35;26.10;99.90
9885;DHT22;4981;50.966;4.842;2023-09-12T12:13:03;26.50;27.10
9885;DHT22;4981;50.966;4.842;2023-09-12T12:15:31;26.00;29.70
9885;DHT22;4981;50.966;4.842;2023-09-12T12:17:58;25.90;1.00
9885;DHT22;4981;50.966;4.842;2023-09-12T12:20:26;26.20;26.60
9885;DHT22;4981;50.966;4.842;2023-09-12T12:22:55;26.50;22.20
9885;DHT22;4981;50.966;4.842;2023-09-12T12:25:22;26.80;23.50
9885;DHT22;4981;50.966;4.842;2023-09-12T12:27:49;27.30;21.70
9885;DHT22;4981;50.966;4.842;2023-09-12T12:30:18;27.70;18.00
9885;DHT22;4981;50.966;4.842;2023-09-12T12:32:46;27.80;15.60
9885;DHT22;4981;50.966;4.842;2023-09-12T12:35:17;28.40;13.60
9885;DHT22;4981;50.966;4.842;2023-09-12T12:37:47;28.10;16.30
9885;DHT22;4981;50.966;4.842;2023-09-12T12:40:14;28.60;13.10
9885;DHT22;4981;50.966;4.842;2023-09-12T12:42:44;28.20;9.40
9885;DHT22;4981;50.966;4.842;2023-09-12T12:45:13;28.00;12.50
9885;DHT22;4981;50.966;4.842;2023-09-12T12:47:41;28.30;13.00
9885;DHT22;4981;50.966;4.842;2023-09-12T12:50:09;28.30;11.70
9885;DHT22;4981;50.966;4.842;2023-09-12T12:52:37;28.10;13.40
9885;DHT22;4981;50.966;4.842;2023-09-12T12:55:09;28.50;9.90
9885;DHT22;4981;50.966;4.842;2023-09-12T12:57:37;28.50;10.50
9885;DHT22;4981;50.966;4.842;2023-09-12T13:00:07;28.90;7.90
9885;DHT22;4981;50.966;4.842;2023-09-12T13:02:36;28.80;7.30
9885;DHT22;4981;50.966;4.842;2023-09-12T13:05:04;28.80;3.70
9885;DHT22;4981;50.966;4.842;2023-09-12T13:07:33;29.10;5.00
9885;DHT22;4981;50.966;4.842;2023-09-12T13:10:01;29.70;2.90
9885;DHT22;4981;50.966;4.842;2023-09-12T13:12:29;29.80;3.30
9885;DHT22;4981;50.966;4.842;2023-09-12T13:14:57;29.70;6.20
9885;DHT22;4981;50.966;4.842;2023-09-12T13:17:24;28.40;6.20
9885;DHT22;4981;50.966;4.842;2023-09-12T13:19:51;27.70;11.60
9885;DHT22;4981;50.966;4.842;2023-09-12T13:22:18;28.00;11.40
9885;DHT22;4981;50.966;4.842;2023-09-12T13:24:45;27.90;13.40
9885;DHT22;4981;50.966;4.842;2023-09-12T13:27:13;27.60;15.40
9885;DHT22;4981;50.966;4.842;2023-09-12T13:29:41;27.60;14.60
9885;DHT22;4981;50.966;4.842;2023-09-12T13:32:08;27.20;16.00
9885;DHT22;4981;50.966;4.842;2023-09-12T13:34:38;26.90;17.60
9885;DHT22;4981;50.966;4.842;2023-09-12T13:37:05;26.90;17.90
9885;DHT22;4981;50.966;4.842;2023-09-12T13:39:32;27.10;15.20
9885;DHT22;4981;50.966;4.842;2023-09-12T13:41:59;26.80;16.20
9885;DHT22;4981;50.966;4.842;2023-09-12T13:44:28;26.90;17.40
9885;DHT22;4981;50.966;4.842;2023-09-12T13:46:57;26.80;19.10
9885;DHT22;4981;50.966;4.842;2023-09-12T13:49:24;26.70;20.30
9885;DHT22;4981;50.966;4.842;2023-09-12T13:51:51;26.70;20.90
9885;DHT22;4981;50.966;4.842;2023-09-12T13:54:18;26.70;20.30
9885;DHT22;4981;50.966;4.842;2023-09-12T13:56:45;26.50;20.00
9885;DHT22;4981;50.966;4.842;2023-09-12T13:59:12;26.60;20.30
9885;DHT22;4981;50.966;4.842;2023-09-12T14:01:39;26.80;20.60
9885;DHT22;4981;50.966;4.842;2023-09-12T14:04:07;26.40;21.60
9885;DHT22;4981;50.966;4.842;2023-09-12T14:06:34;26.60;23.80
9885;DHT22;4981;50.966;4.842;2023-09-12T14:09:01;26.40;21.80
9885;DHT22;4981;50.966;4.842;2023-09-12T14:11:28;26.30;25.60
9885;DHT22;4981;50.966;4.842;2023-09-12T14:13:55;26.40;24.30
9885;DHT22;4981;50.966;4.842;2023-09-12T14:16:22;26.30;22.20
9885;DHT22;4981;50.966;4.842;2023-09-12T14:18:49;26.40;23.70
9885;DHT22;4981;50.966;4.842;2023-09-12T14:21:17;26.30;25.80
9885;DHT22;4981;50.966;4.842;2023-09-12T14:23:44;26.30;25.60
9885;DHT22;4981;50.966;4.842;2023-09-12T14:26:12;26.20;25.40
9885;DHT22;4981;50.966;4.842;2023-09-12T14:28:39;25.90;1.00
9885;DHT22;4981;50.966;4.842;2023-09-12T14:31:06;25.80;1.00
9885;DHT22;4981;50.966;4.842;2023-09-12T14:33:39;25.70;1.00
9885;DHT22;4981;50.966;4.842;2023-09-12T14:36:07;25.60;1.00
9885;DHT22;4981;50.966;4.842;2023-09-12T14:38:36;25.50;1.00
9885;DHT22;4981;50.966;4.842;2023-09-12T14:41:03;25.50;1.00
9885;DHT22;4981;50.966;4.842;2023-09-12T14:43:30;25.30;1.00
9885;DHT22;4981;50.966;4.842;2023-09-12T14:45:57;25.20;1.00
9885;DHT22;4981;50.966;4.842;2023-09-12T14:48:24;25.30;1.00
9885;DHT22;4981;50.966;4.842;2023-09-12T14:50:51;25.30;1.00
9885;DHT22;4981;50.966;4.842;2023-09-12T14:53:18;25.30;1.00
9885;DHT22;4981;50.966;4.842;2023-09-12T14:55:46;25.50;1.00
9885;DHT22;4981;50.966;4.842;2023-09-12T14:58:13;25.30;1.00
9885;DHT22;4981;50.966;4.842;2023-09-12T15:00:40;25.50;1.00
9885;DHT22;4981;50.966;4.842;2023-09-12T15:03:07;25.20;1.00
9885;DHT22;4981;50.966;4.842;2023-09-12T15:05:34;25.10;1.00
9885;DHT22;4981;50.966;4.842;2023-09-12T15:08:01;25.20;1.00
9885;DHT22;4981;50.966;4.842;2023-09-12T15:10:28;25.30;1.00
9885;DHT22;4981;50.966;4.842;2023-09-12T15:12:56;25.30;1.00
9885;DHT22;4981;50.966;4.842;2023-09-12T15:15:23;25.10;1.00
9885;DHT22;4981;50.966;4.842;2023-09-12T15:17:50;25.00;1.00
9885;DHT22;4981;50.966;4.842;2023-09-12T15:20:17;24.80;1.00
9885;DHT22;4981;50.966;4.842;2023-09-12T15:22:44;24.80;1.00
9885;DHT22;4981;50.966;4.842;2023-09-12T15:25:11;24.70;1.00
9885;DHT22;4981;50.966;4.842;2023-09-12T15:27:38;24.70;1.00
9885;DHT22;4981;50.966;4.842;2023-09-12T15:30:08;24.70;1.00
9885;DHT22;4981;50.966;4.842;2023-09-12T15:32:35;24.60;1.00
9885;DHT22;4981;50.966;4.842;2023-09-12T15:35:02;24.70;1.00
9885;DHT22;4981;50.966;4.842;2023-09-12T15:37:29;24.60;1.00
9885;DHT22;4981;50.966;4.842;2023-09-12T15:39:56;24.60;1.00
9885;DHT22;4981;50.966;4.842;2023-09-12T15:42:24;24.40;1.00
9885;DHT22;4981;50.966;4.842;2023-09-12T15:44:51;24.50;1.00
9885;DHT22;4981;50.966;4.842;2023-09-12T15:47:19;24.50;1.00
9885;DHT22;4981;50.966;4.842;2023-09-12T15:49:47;24.50;1.00
9885;DHT22;4981;50.966;4.842;2023-09-12T15:52:14;24.30;1.00
9885;DHT22;4981;50.966;4.842;2023-09-12T15:54:41;24.20;1.00
9885;DHT22;4981;50.966;4.842;2023-09-12T15:57:08;24.10;1.00
9885;DHT22;4981;50.966;4.842;2023-09-12T15:59:35;24.00;1.00
9885;DHT22;4981;50.966;4.842;2023-09-12T16:02:03;24.00;1.00
9885;DHT22;4981;50.966;4.842;2023-09-12T16:04:31;24.00;1.00
9885;DHT22;4981;50.966;4.842;2023-09-12T16:06:58;24.00;1.00
9885;DHT22;4981;50.966;4.842;2023-09-12T16:09:25;23.90;1.00
9885;DHT22;4981;50.966;4.842;2023-09-12T16:11:52;24.00;1.00
9885;DHT22;4981;50.966;4.842;2023-09-12T16:14:19;23.80;1.00
9885;DHT22;4981;50.966;4.842;2023-09-12T16:16:46;24.00;1.00
9885;DHT22;4981;50.966;4.842;2023-09-12T16:19:13;23.90;1.00
9885;DHT22;4981;50.966;4.842;2023-09-12T16:21:42;23.90;1.00
9885;DHT22;4981;50.966;4.842;2023-09-12T16:24:09;24.10;1.00
9885;DHT22;4981;50.966;4.842;2023-09-12T16:26:37;23.90;1.00
9885;DHT22;4981;50.966;4.842;2023-09-12T16:29:04;23.80;1.00
9885;DHT22;4981;50.966;4.842;2023-09-12T16:31:31;23.80;1.00
9885;DHT22;4981;50.966;4.842;2023-09-12T16:33:58;23.70;1.00
9885;DHT22;4981;50.966;4.842;2023-09-12T16:36:25;23.60;1.00
9885;DHT22;4981;50.966;4.842;2023-09-12T16:38:53;22.90;1.00
9885;DHT22;4981;50.966;4.842;2023-09-12T16:41:20;22.50;1.00
9885;DHT22;4981;50.966;4.842;2023-09-12T16:43:47;21.90;1.00
9885;DHT22;4981;50.966;4.842;2023-09-12T16:46:14;21.60;1.00
9885;DHT22;4981;50.966;4.842;2023-09-12T16:48:41;21.50;1.00
9885;DHT22;4981;50.966;4.842;2023-09-12T16:51:08;21.70;1.00
9885;DHT22;4981;50.966;4.842;2023-09-12T16:53:35;21.40;1.00
9885;DHT22;4981;50.966;4.842;2023-09-12T16:56:04;21.60;1.00
9885;DHT22;4981;50.966;4.842;2023-09-12T16:58:31;21.70;1.00
9885;DHT22;4981;50.966;4.842;2023-09-12T17:00:59;22.00;1.00
9885;DHT22;4981;50.966;4.842;2023-09-12T17:03:26;22.10;1.00
9885;DHT22;4981;50.966;4.842;2023-09-12T17:05:53;22.10;1.00
9885;DHT22;4981;50.966;4.842;2023-09-12T17:08:21;22.20;1.00
9885;DHT22;4981;50.966;4.842;2023-09-12T17:10:48;22.10;1.00
9885;DHT22;4981;50.966;4.842;2023-09-12T17:13:17;22.10;1.00
9885;DHT22;4981;50.966;4.842;2023-09-12T17:15:44;22.00;1.00
9885;DHT22;4981;50.966;4.842;2023-09-12T17:18:11;22.00;1.00
9885;DHT22;4981;50.966;4.842;2023-09-12T17:20:38;22.10;1.00
9885;DHT22;4981;50.966;4.842;2023-09-12T17:23:05;21.90;1.00
9885;DHT22;4981;50.966;4.842;2023-09-12T17:25:33;21.80;1.00
9885;DHT22;4981;50.966;4.842;2023-09-12T17:28:00;21.60;1.00
9885;DHT22;4981;50.966;4.842;2023-09-12T17:30:29;21.70;1.00
9885;DHT22;4981;50.966;4.842;2023-09-12T17:32:55;21.70;1.00
9885;DHT22;4981;50.966;4.842;2023-09-12T17:35:23;21.80;1.00
9885;DHT22;4981;50.966;4.842;2023-09-12T17:37:50;21.80;1.00
9885;DHT22;4981;50.966;4.842;2023-09-12T17:40:17;21.90;1.00
9885;DHT22;4981;50.966;4.842;2023-09-12T17:42:45;21.90;1.00
9885;DHT22;4981;50.966;4.842;2023-09-12T17:45:12;21.60;1.00
9885;DHT22;4981;50.966;4.842;2023-09-12T17:47:40;21.60;1.00
9885;DHT22;4981;50.966;4.842;2023-09-12T17:50:08;21.70;1.00
9885;DHT22;4981;50.966;4.842;2023-09-12T17:52:35;22.00;1.00
9885;DHT22;4981;50.966;4.842;2023-09-12T17:55:04;21.90;1.00
9885;DHT22;4981;50.966;4.842;2023-09-12T17:57:30;21.40;1.00
9885;DHT22;4981;50.966;4.842;2023-09-12T17:59:58;21.20;1.00
9885;DHT22;4981;50.966;4.842;2023-09-12T18:02:25;21.30;1.00
9885;DHT22;4981;50.966;4.842;2023-09-12T18:04:53;21.30;1.00
9885;DHT22;4981;50.966;4.842;2023-09-12T18:07:21;21.30;1.00
9885;DHT22;4981;50.966;4.842;2023-09-12T18:09:49;21.30;1.00
9885;DHT22;4981;50.966;4.842;2023-09-12T18:12:16;21.30;1.00
9885;DHT22;4981;50.966;4.842;2023-09-12T18:14:43;21.30;1.00
9885;DHT22;4981;50.966;4.842;2023-09-12T18:17:10;21.50;1.00
9885;DHT22;4981;50.966;4.842;2023-09-12T18:19:40;21.50;1.00
9885;DHT22;4981;50.966;4.842;2023-09-12T18:22:08;21.40;1.00
9885;DHT22;4981;50.966;4.842;2023-09-12T18:24:35;21.30;1.00
9885;DHT22;4981;50.966;4.842;2023-09-12T18:27:02;21.20;1.00
9885;DHT22;4981;50.966;4.842;2023-09-12T18:29:29;21.20;1.00
9885;DHT22;4981;50.966;4.842;2023-09-12T18:31:56;21.20;1.00
9885;DHT22;4981;50.966;4.842;2023-09-12T18:34:24;21.20;1.00
9885;DHT22;4981;50.966;4.842;2023-09-12T18:36:52;21.10;1.00
9885;DHT22;4981;50.966;4.842;2023-09-12T18:39:21;21.20;1.00
9885;DHT22;4981;50.966;4.842;2023-09-12T18:41:48;21.00;1.00
9885;DHT22;4981;50.966;4.842;2023-09-12T18:44:15;21.10;1.00
9885;DHT22;4981;50.966;4.842;2023-09-12T18:46:42;21.00;1.00
9885;DHT22;4981;50.966;4.842;2023-09-12T18:49:09;20.80;1.00
9885;DHT22;4981;50.966;4.842;2023-09-12T18:51:36;20.60;1.00
9885;DHT22;4981;50.966;4.842;2023-09-12T18:54:03;20.30;1.00
9885;DHT22;4981;50.966;4.842;2023-09-12T18:56:32;20.30;1.00
9885;DHT22;4981;50.966;4.842;2023-09-12T18:58:59;20.00;1.00
9885;DHT22;4981;50.966;4.842;2023-09-12T19:01:26;19.60;1.00
9885;DHT22;4981;50.966;4.842;2023-09-12T19:03:53;19.60;1.00
9885;DHT22;4981;50.966;4.842;2023-09-12T19:06:20;19.50;1.00
9885;DHT22;4981;50.966;4.842;2023-09-12T19:08:47;19.40;1.00
9885;DHT22;4981;50.966;4.842;2023-09-12T19:11:14;19.60;1.00
9885;DHT22;4981;50.966;4.842;2023-09-12T19:13:43;19.80;1.00
9885;DHT22;4981;50.966;4.842;2023-09-12T19:16:10;19.90;1.00
9885;DHT22;4981;50.966;4.842;2023-09-12T19:18:38;20.00;1.00
9885;DHT22;4981;50.966;4.842;2023-09-12T19:21:05;19.90;1.00
9885;DHT22;4981;50.966;4.842;2023-09-12T19:23:33;19.80;1.00